createdAt,value
2022-12-17T00:02:08.199Z,15.88
2022-12-17T00:04:53.668Z,16.85
2022-12-17T00:07:39.394Z,13.63
2022-12-17T00:10:25.561Z,14.82
2022-12-17T00:13:12.297Z,13.70
2022-12-17T00:15:57.600Z,14.02
2022-12-17T00:18:51.485Z,13.18
2022-12-17T00:22:23.953Z,12.77
2022-12-17T00:25:15.379Z,14.13
2022-12-17T00:28:00.794Z,14.20
2022-12-17T00:30:47.547Z,13.00
2022-12-17T00:33:33.165Z,13.45
2022-12-17T00:36:28.193Z,14.90
2022-12-17T00:39:14.584Z,13.02
2022-12-17T00:41:59.035Z,13.15
2022-12-17T00:44:44.458Z,13.45
2022-12-17T00:47:30.961Z,14.23
2022-12-17T00:50:16.300Z,14.52
2022-12-17T00:53:03.140Z,14.35
2022-12-17T00:55:48.416Z,14.77
2022-12-17T00:58:34.012Z,13.60
2022-12-17T01:01:19.181Z,14.02
2022-12-17T01:04:06.190Z,14.23
2022-12-17T01:06:52.006Z,14.98
2022-12-17T01:09:38.582Z,13.50
2022-12-17T01:12:25.170Z,13.98
2022-12-17T01:15:11.125Z,14.23
2022-12-17T01:17:56.381Z,13.98
2022-12-17T01:20:45.518Z,16.50
2022-12-17T01:23:31.114Z,14.55
2022-12-17T01:26:16.637Z,14.20
2022-12-17T01:29:02.005Z,15.02
2022-12-17T01:31:47.385Z,13.85
2022-12-17T01:34:32.900Z,14.23
2022-12-17T01:37:19.319Z,14.88
2022-12-17T01:40:04.169Z,13.77
2022-12-17T01:42:56.415Z,14.50
2022-12-17T01:45:41.882Z,14.30
2022-12-17T01:48:29.968Z,13.18
2022-12-17T01:51:15.447Z,13.65
2022-12-17T01:54:05.568Z,16.40
2022-12-17T01:56:51.536Z,12.15
2022-12-17T01:59:39.202Z,13.07
2022-12-17T02:02:24.668Z,13.63
2022-12-17T02:05:09.883Z,11.40
2022-12-17T02:08:05.820Z,14.10
2022-12-17T02:10:58.484Z,13.13
2022-12-17T02:13:49.614Z,14.05
2022-12-17T02:16:38.956Z,12.40
2022-12-17T02:19:34.808Z,14.05
2022-12-17T02:22:26.743Z,14.68
2022-12-17T02:25:16.077Z,12.77
2022-12-17T02:28:17.098Z,13.75
2022-12-17T02:31:02.458Z,14.30
2022-12-17T02:33:47.495Z,15.48
2022-12-17T02:36:32.926Z,14.93
2022-12-17T02:39:17.942Z,14.60
2022-12-17T02:42:07.774Z,14.52
2022-12-17T02:44:57.773Z,16.38
2022-12-17T02:47:43.782Z,13.53
2022-12-17T02:50:30.507Z,16.00
2022-12-17T02:53:20.115Z,13.30
2022-12-17T02:56:05.374Z,14.77
2022-12-17T02:58:51.835Z,14.00
2022-12-17T03:01:46.672Z,14.25
2022-12-17T03:04:32.381Z,15.68
2022-12-17T03:07:17.397Z,14.63
2022-12-17T03:10:03.384Z,15.43
2022-12-17T03:12:48.353Z,16.42
2022-12-17T03:15:33.881Z,15.38
2022-12-17T03:18:20.306Z,14.13
2022-12-17T03:21:06.032Z,15.05
2022-12-17T03:23:51.291Z,16.67
2022-12-17T03:26:41.508Z,16.33
2022-12-17T03:29:26.598Z,17.10
2022-12-17T03:32:11.907Z,15.80
2022-12-17T03:34:58.862Z,16.80
2022-12-17T03:37:44.881Z,14.53
2022-12-17T03:40:30.051Z,16.63
2022-12-17T03:43:18.244Z,16.13
2022-12-17T03:46:10.469Z,16.98
2022-12-17T03:48:55.781Z,16.10
2022-12-17T03:51:42.402Z,17.63
2022-12-17T03:54:27.398Z,16.63
2022-12-17T03:57:16.212Z,17.17
2022-12-17T04:00:01.899Z,17.75
2022-12-17T04:02:47.082Z,17.73
2022-12-17T04:05:32.871Z,17.13
2022-12-17T04:08:19.494Z,16.40
2022-12-17T04:11:16.239Z,17.00
2022-12-17T04:14:01.896Z,17.40
2022-12-17T04:16:47.288Z,16.15
2022-12-17T04:19:32.996Z,15.77
2022-12-17T04:22:18.319Z,17.08
2022-12-17T04:25:05.205Z,19.27
2022-12-17T04:27:50.354Z,18.90
2022-12-17T04:30:36.126Z,15.68
2022-12-17T04:33:21.072Z,18.45
2022-12-17T04:36:06.383Z,15.52
2022-12-17T04:38:52.832Z,17.65
2022-12-17T04:41:39.406Z,17.50
2022-12-17T04:44:25.675Z,17.25
2022-12-17T04:47:11.015Z,16.60
2022-12-17T04:49:56.247Z,17.70
2022-12-17T04:52:41.429Z,18.27
2022-12-17T04:55:27.241Z,17.13
2022-12-17T04:58:13.613Z,16.63
2022-12-17T05:00:58.894Z,17.10
2022-12-17T05:03:43.960Z,18.57
2022-12-17T05:06:29.412Z,17.07
2022-12-17T05:09:14.345Z,17.58
2022-12-17T05:11:59.953Z,16.77
2022-12-17T05:14:46.746Z,17.88
2022-12-17T05:17:28.297Z,18.40
2022-12-17T05:20:13.626Z,16.90
2022-12-17T05:23:01.098Z,17.35
2022-12-17T05:25:54.735Z,17.10
2022-12-17T05:28:40.483Z,17.40
2022-12-17T05:31:27.340Z,16.35
2022-12-17T05:34:12.793Z,16.90
2022-12-17T05:36:58.163Z,16.42
2022-12-17T05:39:44.038Z,15.73
2022-12-17T05:42:29.522Z,14.32
2022-12-17T05:45:14.536Z,13.02
2022-12-17T05:48:00.948Z,16.40
2022-12-17T05:50:46.562Z,16.35
2022-12-17T05:53:31.657Z,14.65
2022-12-17T05:56:16.992Z,13.18
2022-12-17T05:59:02.638Z,12.80
2022-12-17T06:02:02.732Z,13.55
2022-12-17T06:04:49.539Z,13.95
2022-12-17T06:07:34.930Z,12.75
2022-12-17T06:10:20.853Z,16.38
2022-12-17T06:13:13.729Z,13.00
2022-12-17T06:15:58.780Z,13.18
2022-12-17T06:18:44.208Z,12.60
2022-12-17T06:21:30.957Z,16.15
2022-12-17T06:24:18.474Z,13.48
2022-12-17T06:27:04.014Z,13.95
2022-12-17T06:29:50.181Z,13.77
2022-12-17T06:32:35.696Z,12.00
2022-12-17T06:35:22.823Z,13.20
2022-12-17T06:38:15.736Z,14.00
2022-12-17T06:40:57.169Z,12.85
2022-12-17T06:43:42.634Z,13.60
2022-12-17T06:46:27.886Z,14.20
2022-12-17T06:49:21.757Z,12.63
2022-12-17T06:52:07.223Z,11.60
2022-12-17T06:54:54.082Z,11.63
2022-12-17T06:57:41.832Z,12.10
2022-12-17T07:00:30.150Z,11.23
2022-12-17T07:03:15.840Z,11.15
2022-12-17T07:06:01.839Z,13.65
2022-12-17T07:08:47.202Z,13.35
2022-12-17T07:11:34.178Z,11.63
2022-12-17T07:14:19.660Z,13.63
2022-12-17T07:17:04.970Z,12.98
2022-12-17T07:19:50.691Z,13.75
2022-12-17T07:22:36.379Z,13.37
2022-12-17T07:25:21.330Z,12.75
2022-12-17T07:28:12.613Z,13.88
2022-12-17T07:30:58.119Z,12.55
2022-12-17T07:33:43.328Z,13.43
2022-12-17T07:36:29.054Z,12.27
2022-12-17T07:39:14.496Z,12.35
2022-12-17T07:41:59.596Z,12.73
2022-12-17T07:44:46.056Z,13.23
2022-12-17T07:47:45.866Z,14.80
2022-12-17T07:50:31.204Z,15.07
2022-12-17T07:53:19.712Z,14.50
2022-12-17T07:56:04.939Z,14.02
2022-12-17T07:58:50.526Z,13.55
2022-12-17T08:01:36.917Z,14.53
2022-12-17T08:04:22.976Z,12.98
2022-12-17T08:07:13.879Z,14.55
2022-12-17T08:10:00.353Z,14.15
2022-12-17T08:12:45.777Z,13.10
2022-12-17T08:15:32.088Z,12.85
2022-12-17T08:18:26.400Z,13.73
2022-12-17T08:21:17.748Z,13.00
2022-12-17T08:24:03.136Z,13.87
2022-12-17T08:26:48.642Z,12.00
2022-12-17T08:29:34.137Z,12.85
2022-12-17T08:32:19.423Z,13.00
2022-12-17T08:35:14.375Z,12.70
2022-12-17T08:38:00.373Z,12.13
2022-12-17T08:40:45.548Z,12.18
2022-12-17T08:43:31.725Z,13.82
2022-12-17T08:46:17.202Z,11.77
2022-12-17T08:49:08.556Z,13.25
2022-12-17T08:52:09.249Z,13.73
2022-12-17T08:54:55.407Z,14.10
2022-12-17T08:57:51.773Z,13.20
2022-12-17T09:00:38.001Z,13.27
2022-12-17T09:03:23.346Z,12.00
2022-12-17T09:06:10.815Z,13.90
2022-12-17T09:08:57.839Z,13.07
2022-12-17T09:11:43.241Z,13.48
2022-12-17T09:14:28.737Z,13.80
2022-12-17T09:17:14.108Z,13.38
2022-12-17T09:19:59.241Z,11.40
2022-12-17T09:22:40.901Z,13.70
2022-12-17T09:25:28.569Z,13.32
2022-12-17T09:28:13.648Z,14.13
2022-12-17T09:31:00.982Z,14.40
2022-12-17T09:33:46.621Z,13.07
2022-12-17T09:36:31.752Z,14.10
2022-12-17T09:39:16.916Z,14.82
2022-12-17T09:42:09.156Z,14.50
2022-12-17T09:45:01.469Z,16.27
2022-12-17T09:47:52.808Z,15.20
2022-12-17T09:50:38.249Z,14.77
2022-12-17T09:53:36.477Z,14.00
2022-12-17T09:56:23.405Z,14.50
2022-12-17T09:59:12.077Z,13.67
2022-12-17T10:01:58.384Z,14.63
2022-12-17T10:04:51.551Z,14.35
2022-12-17T10:07:39.717Z,15.20
2022-12-17T10:10:38.729Z,14.13
2022-12-17T10:13:31.947Z,14.13
2022-12-17T10:16:18.349Z,14.93
2022-12-17T10:19:04.486Z,16.07
2022-12-17T10:21:50.246Z,15.43
2022-12-17T10:24:37.393Z,17.00
2022-12-17T10:27:27.604Z,16.38
2022-12-17T10:30:13.655Z,17.40
2022-12-17T10:33:00.557Z,17.73
2022-12-17T10:35:54.084Z,17.67
2022-12-17T10:38:40.835Z,17.30
2022-12-17T10:41:39.049Z,16.35
2022-12-17T10:44:38.918Z,17.88
2022-12-17T10:47:27.152Z,17.27
2022-12-17T10:50:17.646Z,19.20
2022-12-17T10:53:03.700Z,18.63
2022-12-17T10:55:50.950Z,17.58
2022-12-17T10:58:40.370Z,20.17
2022-12-17T11:01:28.141Z,20.08
2022-12-17T11:04:14.479Z,19.98
2022-12-17T11:07:03.173Z,20.73
2022-12-17T11:09:56.648Z,20.42
2022-12-17T11:12:46.544Z,19.08
2022-12-17T11:15:37.403Z,22.08
2022-12-17T11:18:23.383Z,22.00
2022-12-17T11:21:11.355Z,22.42
2022-12-17T11:24:01.751Z,20.70
2022-12-17T11:26:50.017Z,20.70
2022-12-17T11:29:35.772Z,20.63
2022-12-17T11:32:33.678Z,22.17
2022-12-17T11:35:23.697Z,21.55
2022-12-17T11:38:15.902Z,22.33
2022-12-17T11:41:09.134Z,19.35
2022-12-17T11:43:59.985Z,20.65
2022-12-17T11:46:53.872Z,20.53
2022-12-17T11:49:45.154Z,20.70
2022-12-17T11:52:39.701Z,19.58
2022-12-17T11:55:30.624Z,20.73
2022-12-17T11:58:23.106Z,19.50
2022-12-17T12:01:15.105Z,19.13
2022-12-17T12:04:04.794Z,20.17
2022-12-17T12:06:56.165Z,20.50
2022-12-17T12:09:47.351Z,20.45
2022-12-17T12:12:40.066Z,19.33
2022-12-17T12:15:45.327Z,18.90
2022-12-17T12:18:37.001Z,20.23
2022-12-17T12:21:30.147Z,20.05
2022-12-17T12:24:28.177Z,20.23
2022-12-17T12:27:19.798Z,19.03
2022-12-17T12:30:10.868Z,20.05
2022-12-17T12:33:04.316Z,19.00
2022-12-17T12:35:54.910Z,19.35
2022-12-17T12:38:46.319Z,20.27
2022-12-17T12:41:38.196Z,19.47
2022-12-17T12:44:27.145Z,20.17
2022-12-17T12:47:16.806Z,19.83
2022-12-17T12:50:07.692Z,18.67
2022-12-17T12:52:53.062Z,19.45
2022-12-17T12:55:38.337Z,18.75
2022-12-17T12:58:24.375Z,18.65
2022-12-17T13:01:13.473Z,20.10
2022-12-17T13:04:08.516Z,18.33
2022-12-17T13:06:43.633Z,19.58
2022-12-17T13:09:39.543Z,19.13
2022-12-17T13:12:29.308Z,19.00
2022-12-17T13:15:03.569Z,19.85
2022-12-17T13:17:34.654Z,21.13
2022-12-17T13:20:24.891Z,20.67
2022-12-17T13:22:55.509Z,21.85
2022-12-17T13:25:24.133Z,20.10
2022-12-17T13:27:52.264Z,19.70
2022-12-17T13:30:31.473Z,19.58
2022-12-17T13:33:24.625Z,18.37
2022-12-17T13:36:01.835Z,18.00
2022-12-17T13:38:36.631Z,18.33
2022-12-17T13:41:10.151Z,19.27
2022-12-17T13:43:45.306Z,17.92
2022-12-17T13:46:20.876Z,17.63
2022-12-17T13:48:56.536Z,18.25
2022-12-17T13:51:25.408Z,19.90
2022-12-17T13:53:55.722Z,19.88
2022-12-17T13:56:27.186Z,21.40
2022-12-17T13:58:56.170Z,20.20
2022-12-17T14:01:26.090Z,19.80
2022-12-17T14:04:10.988Z,21.08
2022-12-17T14:06:40.154Z,20.02
2022-12-17T14:09:15.502Z,19.73
2022-12-17T14:12:00.885Z,21.17
2022-12-17T14:14:30.846Z,20.90
2022-12-17T14:16:59.488Z,20.20
2022-12-17T14:19:28.229Z,20.02
2022-12-17T14:21:56.230Z,19.80
2022-12-17T14:24:29.341Z,19.23
2022-12-17T14:26:58.788Z,18.98
2022-12-17T14:29:28.605Z,18.95
2022-12-17T14:31:58.215Z,18.02
2022-12-17T14:34:25.718Z,18.02
2022-12-17T14:36:58.224Z,18.60
2022-12-17T14:39:28.957Z,18.23
2022-12-17T14:42:14.872Z,20.00
2022-12-17T14:44:51.129Z,18.45
2022-12-17T14:47:20.576Z,17.73
2022-12-17T14:49:55.963Z,17.10
2022-12-17T14:52:33.896Z,18.30
2022-12-17T14:55:03.439Z,16.80
2022-12-17T14:57:31.111Z,17.75
2022-12-17T14:59:58.653Z,18.13
2022-12-17T15:02:28.121Z,19.33
2022-12-17T15:04:58.182Z,18.35
2022-12-17T15:07:28.039Z,17.87
2022-12-17T15:09:56.213Z,18.60
2022-12-17T15:12:25.941Z,19.02
2022-12-17T15:14:53.491Z,19.77
2022-12-17T15:17:20.973Z,19.13
2022-12-17T15:19:55.630Z,18.92
2022-12-17T15:22:23.893Z,18.52
2022-12-17T15:24:51.380Z,19.23
2022-12-17T15:27:18.970Z,19.90
2022-12-17T15:29:48.109Z,20.08
2022-12-17T15:32:19.284Z,19.77
2022-12-17T15:34:46.814Z,20.08
2022-12-17T15:37:15.369Z,21.35
2022-12-17T15:39:42.964Z,19.48
2022-12-17T15:42:28.792Z,20.33
2022-12-17T15:44:57.796Z,20.90
2022-12-17T15:47:25.337Z,19.67
2022-12-17T15:49:52.904Z,20.13
2022-12-17T15:52:20.446Z,20.65
2022-12-17T15:54:49.302Z,21.50
2022-12-17T15:57:18.827Z,21.33
2022-12-17T15:59:46.613Z,22.52
2022-12-17T16:02:15.856Z,23.58
2022-12-17T16:04:43.555Z,23.60
2022-12-17T16:07:11.415Z,24.60
2022-12-17T16:09:39.777Z,25.17
2022-12-17T16:12:07.723Z,23.48
2022-12-17T16:14:35.215Z,24.77
2022-12-17T16:17:02.713Z,26.80
2022-12-17T16:19:31.607Z,29.95
2022-12-17T16:21:59.507Z,28.13
2022-12-17T16:24:27.060Z,26.83
2022-12-17T16:27:04.088Z,27.92
2022-12-17T16:29:34.513Z,28.98
2022-12-17T16:32:02.600Z,27.83
2022-12-17T16:34:32.017Z,27.33
2022-12-17T16:37:01.284Z,27.23
2022-12-17T16:39:28.900Z,25.00
2022-12-17T16:41:56.650Z,25.13
2022-12-17T16:44:24.180Z,25.90
2022-12-17T16:46:52.127Z,25.67
2022-12-17T16:49:21.169Z,25.73
2022-12-17T16:51:54.034Z,25.90
2022-12-17T16:54:23.985Z,26.13
2022-12-17T16:56:51.549Z,27.40
2022-12-17T16:59:19.717Z,26.95
2022-12-17T17:01:48.998Z,27.65
2022-12-17T17:04:18.356Z,27.52
2022-12-17T17:06:47.946Z,26.25
2022-12-17T17:09:17.663Z,26.83
2022-12-17T17:11:51.126Z,26.27
2022-12-17T17:14:19.629Z,25.20
2022-12-17T17:16:47.237Z,23.15
2022-12-17T17:19:15.057Z,24.85
2022-12-17T17:21:43.949Z,24.08
2022-12-17T17:24:20.383Z,24.35
2022-12-17T17:26:51.932Z,25.25
2022-12-17T17:29:20.299Z,24.57
2022-12-17T17:34:35.941Z,25.40
2022-12-17T17:37:03.512Z,24.73
2022-12-17T17:39:33.021Z,24.17
2022-12-17T17:42:02.200Z,25.52
2022-12-17T17:44:29.703Z,23.70
2022-12-17T17:46:57.524Z,22.57
2022-12-17T17:49:26.060Z,23.37
2022-12-17T17:52:10.859Z,23.05
2022-12-17T17:54:40.338Z,22.52
2022-12-17T17:57:10.059Z,21.48
2022-12-17T17:59:39.146Z,20.90
2022-12-17T18:02:06.842Z,18.80
2022-12-17T18:04:34.443Z,19.83
2022-12-17T18:07:24.125Z,20.98
2022-12-17T18:09:50.177Z,20.40
2022-12-17T18:12:36.811Z,20.77
2022-12-17T18:15:14.340Z,21.77
2022-12-17T18:17:43.624Z,22.73
2022-12-17T18:20:12.115Z,21.10
2022-12-17T18:22:39.844Z,22.23
2022-12-17T18:25:07.989Z,22.42
2022-12-17T18:27:41.122Z,23.60
2022-12-17T18:30:09.906Z,24.30
2022-12-17T18:32:37.409Z,20.83
2022-12-17T18:35:06.777Z,20.48
2022-12-17T18:37:34.426Z,21.07
2022-12-17T18:40:02.141Z,19.38
2022-12-17T18:42:47.265Z,20.52
2022-12-17T18:45:17.097Z,20.88
2022-12-17T18:47:45.049Z,20.07
2022-12-17T18:50:13.087Z,19.88
2022-12-17T18:52:40.666Z,20.27
2022-12-17T18:55:08.580Z,19.58
2022-12-17T18:57:37.002Z,18.67
2022-12-17T19:00:05.951Z,20.05
2022-12-17T19:02:36.375Z,18.80
2022-12-17T19:05:04.219Z,18.95
2022-12-17T19:07:31.849Z,19.95
2022-12-17T19:09:59.634Z,19.02
2022-12-17T19:12:27.376Z,20.10
2022-12-17T19:14:55.650Z,18.85
2022-12-17T19:17:24.142Z,18.98
2022-12-17T19:19:53.785Z,20.40
2022-12-17T19:22:22.234Z,19.25
2022-12-17T19:24:49.760Z,17.65
2022-12-17T19:27:17.364Z,17.23
2022-12-17T19:29:49.144Z,16.73
2022-12-17T19:32:17.320Z,16.93
2022-12-17T19:34:45.037Z,15.70
2022-12-17T19:37:14.027Z,15.93
2022-12-17T19:39:42.354Z,16.30
2022-12-17T19:42:24.595Z,16.75
2022-12-17T19:44:54.919Z,17.02
2022-12-17T19:47:23.420Z,17.23
2022-12-17T19:49:51.031Z,16.53
2022-12-17T19:52:19.869Z,19.20
2022-12-17T19:54:47.337Z,18.83
2022-12-17T19:57:15.409Z,19.02
2022-12-17T19:59:43.837Z,18.08
2022-12-17T20:02:11.845Z,16.67
2022-12-17T20:04:39.536Z,19.27
2022-12-17T20:07:08.162Z,16.15
2022-12-17T20:09:37.218Z,18.08
2022-12-17T20:12:05.037Z,18.10
2022-12-17T20:14:38.173Z,18.45
2022-12-17T20:17:06.522Z,18.52
2022-12-17T20:19:34.891Z,18.50
2022-12-17T20:22:04.387Z,18.02
2022-12-17T20:24:32.474Z,18.80
2022-12-17T20:27:02.061Z,18.77
2022-12-17T20:29:29.892Z,19.33
2022-12-17T20:31:57.649Z,17.67
2022-12-17T20:34:26.261Z,18.88
2022-12-17T20:36:54.598Z,15.97
2022-12-17T20:39:27.150Z,16.48
2022-12-17T20:41:55.828Z,16.27
2022-12-17T20:44:24.784Z,17.63
2022-12-17T20:46:52.330Z,16.95
2022-12-17T20:49:20.101Z,18.15
2022-12-17T20:51:47.661Z,16.83
2022-12-17T20:54:15.166Z,18.58
2022-12-17T20:56:42.836Z,17.13
2022-12-17T20:59:15.791Z,16.33
2022-12-17T21:01:45.578Z,17.73
2022-12-17T21:04:13.893Z,16.52
2022-12-17T21:06:43.325Z,17.83
2022-12-17T21:09:11.651Z,16.57
2022-12-17T21:11:40.903Z,16.42
2022-12-17T21:14:10.664Z,16.77
2022-12-17T21:16:39.983Z,15.87
2022-12-17T21:19:10.822Z,17.15
2022-12-17T21:21:38.885Z,17.37
2022-12-17T21:24:07.211Z,16.90
2022-12-17T21:26:37.091Z,16.05
2022-12-17T21:29:06.732Z,18.07
2022-12-17T21:31:35.721Z,16.67
2022-12-17T21:34:04.763Z,17.38
2022-12-17T21:36:34.967Z,17.35
2022-12-17T21:39:02.832Z,16.35
2022-12-17T21:41:39.359Z,16.13
2022-12-17T21:44:13.557Z,13.93
2022-12-17T21:46:43.387Z,16.90
2022-12-17T21:49:14.274Z,16.13
2022-12-17T21:51:44.263Z,16.45
2022-12-17T21:54:17.311Z,16.63
2022-12-17T21:56:47.357Z,16.70
2022-12-17T21:59:15.468Z,15.07
2022-12-17T22:01:43.276Z,14.40
2022-12-17T22:04:11.261Z,16.13
2022-12-17T22:06:41.348Z,15.43
2022-12-17T22:09:33.114Z,15.80
2022-12-17T22:12:16.038Z,15.43
2022-12-17T22:14:43.868Z,14.40
2022-12-17T22:17:11.745Z,14.07
2022-12-17T22:19:39.481Z,14.45
2022-12-17T22:22:06.960Z,13.53
2022-12-17T22:24:36.650Z,15.63
2022-12-17T22:27:09.404Z,14.05
2022-12-17T22:29:55.376Z,14.05
2022-12-17T22:32:40.665Z,13.98
2022-12-17T22:36:22.052Z,14.57
2022-12-17T22:40:03.268Z,11.37
2022-12-17T22:44:29.801Z,13.98
2022-12-17T22:44:46.141Z,13.57
2022-12-17T22:46:22.083Z,12.95
2022-12-17T22:48:49.707Z,12.67
2022-12-17T22:51:21.985Z,12.68
2022-12-17T22:53:58.401Z,11.55
2022-12-17T22:57:09.403Z,12.13
2022-12-17T22:59:16.713Z,12.98
2022-12-17T23:01:44.774Z,10.70
2022-12-17T23:04:13.941Z,12.38
2022-12-17T23:06:41.921Z,12.75
2022-12-17T23:09:10.439Z,11.75
2022-12-17T23:11:39.503Z,11.55
2022-12-17T23:14:08.933Z,13.13
2022-12-17T23:16:38.945Z,12.65
2022-12-17T23:19:07.038Z,11.23
2022-12-17T23:21:35.308Z,12.50
2022-12-17T23:24:03.195Z,11.05
2022-12-17T23:26:33.028Z,12.35
2022-12-17T23:29:03.840Z,13.43
2022-12-17T23:31:34.780Z,11.48
2022-12-17T23:34:02.379Z,13.18
2022-12-17T23:36:31.087Z,12.00
2022-12-17T23:38:59.010Z,12.75
2022-12-17T23:41:28.785Z,10.90
2022-12-17T23:43:57.198Z,11.23
2022-12-17T23:46:28.236Z,12.63
2022-12-17T23:48:56.040Z,10.88
2022-12-17T23:51:24.441Z,10.82
2022-12-17T23:53:53.238Z,11.85
2022-12-17T23:56:23.533Z,10.65
2022-12-17T23:58:53.490Z,11.48
